Time;durP1;ratioP1;P1;durP2;ratioP2;P2;SDS_P1;SDS_P2;PMS_P1;PMS_P2;Temp;Humidity;BMP_temperature;BMP_pressure;BME280_temperature;BME280_humidity;BME280_pressure;Samples;Min_cycle;Max_cycle;Signal;HPM_P1;HPM_P2
2022/08/30 00:01:09;;;;;;;6.88;2.72;;;;;;;;;;4969265;28;20754;-84
2022/08/30 00:03:44;;;;;;;5.72;3.00;;;;;;;;;;4968734;28;20508;-83
2022/08/30 00:06:10;;;;;;;10.27;3.10;;;;;;;;;;4965650;28;20125;-84
2022/08/30 00:08:37;;;;;;;7.63;3.20;;;;;;;;;;4969406;28;20081;-84
2022/08/30 00:11:04;;;;;;;5.05;2.85;;;;;;;;;;4966592;28;20047;-83
2022/08/30 00:13:29;;;;;;;9.15;3.28;;;;;;;;;;4967953;28;20038;-83
2022/08/30 00:15:55;;;;;;;6.32;3.20;;;;;;;;;;4969570;28;20391;-85
2022/08/30 00:18:21;;;;;;;7.93;3.08;;;;;;;;;;4968709;28;20799;-85
2022/08/30 00:20:48;;;;;;;4.93;3.13;;;;;;;;;;4957607;28;20043;-83
2022/08/30 00:23:18;;;;;;;5.95;3.00;;;;;;;;;;4966034;28;20035;-83
2022/08/30 00:25:44;;;;;;;8.82;3.10;;;;;;;;;;4967772;28;20039;-84
2022/08/30 00:28:11;;;;;;;8.80;3.92;;;;;;;;;;4963900;28;20097;-84
2022/08/30 00:30:37;;;;;;;5.90;3.00;;;;;;;;;;4966710;28;20023;-83
2022/08/30 00:33:03;;;;;;;5.95;3.10;;;;;;;;;;4969298;28;20626;-83
2022/08/30 00:35:28;;;;;;;9.75;3.63;;;;;;;;;;4968946;28;20118;-83
2022/08/30 00:37:54;;;;;;;5.35;3.00;;;;;;;;;;4967744;28;20034;-84
2022/08/30 00:40:21;;;;;;;10.88;3.75;;;;;;;;;;4968996;28;20069;-84
2022/08/30 00:42:47;;;;;;;10.82;3.78;;;;;;;;;;4967196;28;20026;-84
2022/08/30 00:45:15;;;;;;;8.50;3.20;;;;;;;;;;4962076;28;20031;-83
2022/08/30 00:47:40;;;;;;;9.15;3.33;;;;;;;;;;4969186;28;20069;-83
2022/08/30 00:50:07;;;;;;;9.20;4.15;;;;;;;;;;4961493;28;20066;-84
2022/08/30 00:52:35;;;;;;;6.72;3.28;;;;;;;;;;4966522;28;20050;-84
2022/08/30 00:55:01;;;;;;;10.40;3.50;;;;;;;;;;4967800;28;20103;-83
2022/08/30 00:57:27;;;;;;;7.35;3.65;;;;;;;;;;4968129;28;20505;-85
2022/08/30 00:59:53;;;;;;;8.25;3.50;;;;;;;;;;4968892;28;20093;-84
2022/08/30 01:02:21;;;;;;;10.00;3.72;;;;;;;;;;4967037;28;20042;-85
2022/08/30 01:04:47;;;;;;;12.68;3.47;;;;;;;;;;4968103;28;20041;-84
2022/08/30 01:07:13;;;;;;;7.13;3.42;;;;;;;;;;4968676;28;20035;-84
2022/08/30 01:09:39;;;;;;;7.68;3.70;;;;;;;;;;4969290;28;20026;-84
2022/08/30 01:12:05;;;;;;;9.23;3.88;;;;;;;;;;4969025;28;20047;-85
2022/08/30 01:14:32;;;;;;;10.07;4.05;;;;;;;;;;4967364;28;20090;-83
2022/08/30 01:17:00;;;;;;;11.25;4.05;;;;;;;;;;4964946;28;20037;-84
2022/08/30 01:19:40;;;;;;;9.82;4.22;;;;;;;;;;4972242;28;20093;-83
2022/08/30 01:22:26;;;;;;;10.60;3.63;;;;;;;;;;4970360;28;20129;-84
2022/08/30 01:24:53;;;;;;;11.50;4.28;;;;;;;;;;4972441;28;20038;-84
2022/08/30 01:27:20;;;;;;;7.15;3.47;;;;;;;;;;4972123;28;20117;-83
2022/08/30 01:29:46;;;;;;;10.18;4.03;;;;;;;;;;4971164;28;20035;-85
2022/08/30 01:32:22;;;;;;;14.85;4.32;;;;;;;;;;4972149;28;20037;-84
2022/08/30 01:34:48;;;;;;;8.20;3.80;;;;;;;;;;4962520;28;20114;-83
2022/08/30 01:37:20;;;;;;;10.10;4.20;;;;;;;;;;4966299;28;20119;-85
2022/08/30 01:39:46;;;;;;;6.60;3.50;;;;;;;;;;4964869;28;20027;-83
2022/08/30 01:42:16;;;;;;;6.05;3.42;;;;;;;;;;4971473;28;20063;-85
2022/08/30 01:44:42;;;;;;;10.40;4.13;;;;;;;;;;4970090;28;20089;-84
2022/08/30 01:47:07;;;;;;;12.85;4.43;;;;;;;;;;4971988;28;20039;-84
2022/08/30 01:49:32;;;;;;;9.27;4.40;;;;;;;;;;4963966;28;20117;-84
2022/08/30 01:51:58;;;;;;;11.75;4.90;;;;;;;;;;4970006;28;20658;-84
2022/08/30 01:54:23;;;;;;;9.93;4.45;;;;;;;;;;4966992;28;20024;-84
2022/08/30 01:56:49;;;;;;;8.73;4.03;;;;;;;;;;4971529;28;20055;-84
2022/08/30 01:59:14;;;;;;;7.38;4.22;;;;;;;;;;4971546;28;20420;-84
2022/08/30 02:01:41;;;;;;;10.45;4.28;;;;;;;;;;4971157;28;20034;-84
2022/08/30 02:04:10;;;;;;;8.32;4.03;;;;;;;;;;4969873;28;20038;-84
2022/08/30 02:06:37;;;;;;;13.07;4.72;;;;;;;;;;4968810;28;20034;-84
2022/08/30 02:09:02;;;;;;;10.85;4.50;;;;;;;;;;4971512;28;20525;-84
2022/08/30 02:11:28;;;;;;;9.70;4.50;;;;;;;;;;4969734;28;20089;-84
2022/08/30 02:13:54;;;;;;;11.07;4.50;;;;;;;;;;4971633;28;20030;-84
2022/08/30 02:16:21;;;;;;;9.07;4.57;;;;;;;;;;4971161;28;20094;-85
2022/08/30 02:18:47;;;;;;;10.40;4.55;;;;;;;;;;4971018;28;20114;-84
2022/08/30 02:21:13;;;;;;;9.65;4.25;;;;;;;;;;4972019;28;20452;-84
2022/08/30 02:23:39;;;;;;;9.20;4.43;;;;;;;;;;4968231;28;20034;-85
2022/08/30 02:26:04;;;;;;;7.68;4.47;;;;;;;;;;4983887;28;20041;-85
2022/08/30 02:28:30;;;;;;;8.80;4.30;;;;;;;;;;4992968;28;20094;-86
2022/08/30 02:30:55;;;;;;;12.98;4.88;;;;;;;;;;4990708;28;20144;-85
2022/08/30 02:33:21;;;;;;;11.02;5.03;;;;;;;;;;4972290;28;20026;-85
2022/08/30 02:35:46;;;;;;;12.10;5.18;;;;;;;;;;4970667;28;20034;-85
2022/08/30 02:38:12;;;;;;;10.65;4.97;;;;;;;;;;4970835;28;20393;-84
2022/08/30 02:40:37;;;;;;;10.65;4.20;;;;;;;;;;4967523;28;20051;-85
2022/08/30 02:43:03;;;;;;;9.65;4.65;;;;;;;;;;4969789;28;20041;-85
2022/08/30 02:45:29;;;;;;;10.32;4.68;;;;;;;;;;4969799;28;20026;-85
2022/08/30 02:47:55;;;;;;;7.63;4.45;;;;;;;;;;4958902;28;20050;-85
2022/08/30 02:50:21;;;;;;;10.73;4.88;;;;;;;;;;4970594;28;20469;-86
2022/08/30 02:52:46;;;;;;;9.77;4.55;;;;;;;;;;4969819;28;20504;-85
2022/08/30 02:55:12;;;;;;;8.98;4.40;;;;;;;;;;4969966;28;20038;-85
2022/08/30 02:57:37;;;;;;;11.57;4.65;;;;;;;;;;4966116;28;20043;-85
2022/08/30 03:00:07;;;;;;;6.68;4.03;;;;;;;;;;4969204;28;20428;-85
2022/08/30 03:02:33;;;;;;;10.48;4.93;;;;;;;;;;4970539;28;20097;-85
2022/08/30 03:04:59;;;;;;;10.02;4.63;;;;;;;;;;4970574;28;20039;-86
2022/08/30 03:07:25;;;;;;;11.18;5.43;;;;;;;;;;4967087;28;20039;-85
2022/08/30 03:09:51;;;;;;;14.40;6.05;;;;;;;;;;4956432;28;20027;-86
2022/08/30 03:12:17;;;;;;;12.48;4.78;;;;;;;;;;4969424;28;20575;-86
2022/08/30 03:14:43;;;;;;;17.02;5.05;;;;;;;;;;4967065;28;20076;-86
2022/08/30 03:17:08;;;;;;;14.07;5.30;;;;;;;;;;4969045;28;20089;-86
2022/08/30 03:19:35;;;;;;;9.75;5.00;;;;;;;;;;4968504;28;20050;-86
2022/08/30 03:22:02;;;;;;;11.30;5.15;;;;;;;;;;4968913;28;20042;-85
2022/08/30 03:24:28;;;;;;;14.13;5.65;;;;;;;;;;4964196;28;20046;-86
2022/08/30 03:26:54;;;;;;;8.70;4.82;;;;;;;;;;4956045;28;20059;-85
2022/08/30 03:29:19;;;;;;;11.52;5.00;;;;;;;;;;4965501;28;20035;-86
2022/08/30 03:31:44;;;;;;;11.85;5.28;;;;;;;;;;4966660;28;20034;-84
2022/08/30 03:34:10;;;;;;;9.88;5.00;;;;;;;;;;4970344;28;20039;-85
2022/08/30 03:36:38;;;;;;;12.77;4.88;;;;;;;;;;4968826;28;20031;-84
2022/08/30 03:39:08;;;;;;;11.98;5.22;;;;;;;;;;4988945;28;20133;-85
2022/08/30 03:41:34;;;;;;;10.38;5.40;;;;;;;;;;4987542;28;20050;-84
2022/08/30 03:44:00;;;;;;;10.13;5.35;;;;;;;;;;4987500;28;20031;-84
2022/08/30 03:46:26;;;;;;;10.95;5.20;;;;;;;;;;4982801;28;20125;-84
2022/08/30 03:48:54;;;;;;;15.82;5.22;;;;;;;;;;4985239;28;20121;-84
2022/08/30 03:51:21;;;;;;;11.85;5.47;;;;;;;;;;4987798;28;20109;-84
2022/08/30 03:53:46;;;;;;;13.45;5.95;;;;;;;;;;4986658;28;20038;-84
2022/08/30 03:56:11;;;;;;;14.13;5.68;;;;;;;;;;4986473;28;20085;-85
2022/08/30 03:58:37;;;;;;;10.25;5.15;;;;;;;;;;4988788;28;20035;-84
2022/08/30 04:01:03;;;;;;;13.40;5.13;;;;;;;;;;4988378;28;20512;-84
2022/08/30 04:03:28;;;;;;;11.15;5.35;;;;;;;;;;4979008;28;20088;-84
2022/08/30 04:05:54;;;;;;;17.67;5.68;;;;;;;;;;4985805;28;20424;-84
2022/08/30 04:08:20;;;;;;;10.57;5.40;;;;;;;;;;4988725;28;20101;-85
2022/08/30 04:10:46;;;;;;;10.98;5.30;;;;;;;;;;4989144;28;20487;-84
2022/08/30 04:13:13;;;;;;;11.68;5.28;;;;;;;;;;4988841;28;20492;-85
2022/08/30 04:15:38;;;;;;;11.48;5.10;;;;;;;;;;4988919;28;20030;-85
2022/08/30 04:18:04;;;;;;;16.70;6.43;;;;;;;;;;4987568;28;20049;-86
2022/08/30 04:20:30;;;;;;;13.77;5.90;;;;;;;;;;4987531;28;20034;-85
2022/08/30 04:22:56;;;;;;;12.35;5.65;;;;;;;;;;4984415;28;20030;-85
2022/08/30 04:25:21;;;;;;;11.90;5.57;;;;;;;;;;4987583;28;20030;-85
2022/08/30 04:27:47;;;;;;;11.70;5.85;;;;;;;;;;4987385;28;20026;-85
2022/08/30 04:30:14;;;;;;;10.77;5.50;;;;;;;;;;4989212;28;20030;-85
2022/08/30 04:32:40;;;;;;;18.42;5.68;;;;;;;;;;4986838;28;20460;-85
2022/08/30 04:35:06;;;;;;;15.85;5.40;;;;;;;;;;4987839;28;20548;-86
2022/08/30 04:37:31;;;;;;;13.43;5.68;;;;;;;;;;4985848;28;20143;-85
2022/08/30 04:39:59;;;;;;;14.98;6.18;;;;;;;;;;4986904;28;20081;-85
2022/08/30 04:42:30;;;;;;;16.95;5.88;;;;;;;;;;4986970;28;20026;-85
2022/08/30 04:44:56;;;;;;;11.63;5.80;;;;;;;;;;4987345;28;20626;-86
2022/08/30 04:47:22;;;;;;;17.50;5.57;;;;;;;;;;4987549;28;20039;-85
2022/08/30 04:49:48;;;;;;;16.73;5.78;;;;;;;;;;4987821;28;20046;-87
2022/08/30 04:52:13;;;;;;;17.15;6.47;;;;;;;;;;4990654;28;20026;-88
2022/08/30 04:54:39;;;;;;;15.82;6.28;;;;;;;;;;4990069;28;20031;-85
2022/08/30 04:57:06;;;;;;;15.30;5.97;;;;;;;;;;4992744;28;20133;-87
2022/08/30 04:59:32;;;;;;;12.68;5.85;;;;;;;;;;4992654;28;20100;-85
2022/08/30 05:01:58;;;;;;;14.55;5.93;;;;;;;;;;4991526;28;20118;-83
2022/08/30 05:04:23;;;;;;;12.80;6.25;;;;;;;;;;4992695;28;20458;-85
2022/08/30 05:06:49;;;;;;;17.17;6.13;;;;;;;;;;4990811;28;20018;-86
2022/08/30 05:09:14;;;;;;;15.75;6.45;;;;;;;;;;4993035;28;20018;-85
2022/08/30 05:11:42;;;;;;;10.73;5.80;;;;;;;;;;4987746;28;20129;-85
2022/08/30 05:14:08;;;;;;;17.80;6.95;;;;;;;;;;4988964;28;20086;-85
2022/08/30 05:16:34;;;;;;;15.75;6.15;;;;;;;;;;4987766;28;20043;-85
2022/08/30 05:18:59;;;;;;;16.48;6.72;;;;;;;;;;4990366;28;20022;-85
2022/08/30 05:21:26;;;;;;;20.15;6.13;;;;;;;;;;4990626;28;20034;-83
2022/08/30 05:23:55;;;;;;;14.00;6.20;;;;;;;;;;4989768;28;20035;-84
2022/08/30 05:26:23;;;;;;;16.15;6.55;;;;;;;;;;4987433;28;20031;-85
2022/08/30 05:28:49;;;;;;;18.90;6.53;;;;;;;;;;4989666;28;20050;-86
2022/08/30 05:31:21;;;;;;;17.17;7.20;;;;;;;;;;4988858;28;20054;-83
2022/08/30 05:33:48;;;;;;;14.63;6.57;;;;;;;;;;4988687;28;20464;-85
2022/08/30 05:36:15;;;;;;;15.23;6.28;;;;;;;;;;4976246;28;20022;-83
2022/08/30 05:38:41;;;;;;;15.77;6.13;;;;;;;;;;4979334;28;20038;-83
2022/08/30 05:41:07;;;;;;;10.93;5.88;;;;;;;;;;4989493;28;20034;-84
2022/08/30 05:43:33;;;;;;;12.52;5.72;;;;;;;;;;4987548;28;20038;-83
2022/08/30 05:46:04;;;;;;;10.80;5.97;;;;;;;;;;4990276;28;20121;-83
2022/08/30 05:48:30;;;;;;;14.55;6.15;;;;;;;;;;4990099;28;20437;-83
2022/08/30 05:51:17;;;;;;;15.05;6.70;;;;;;;;;;4982175;28;20113;-84
2022/08/30 05:53:43;;;;;;;13.85;6.07;;;;;;;;;;4989685;28;20027;-84
2022/08/30 05:56:11;;;;;;;16.27;6.55;;;;;;;;;;4989360;28;20038;-83
2022/08/30 05:58:37;;;;;;;12.20;6.47;;;;;;;;;;4985833;28;20046;-84
2022/08/30 06:01:03;;;;;;;10.68;5.57;;;;;;;;;;4984997;28;20045;-83
2022/08/30 06:03:31;;;;;;;11.35;6.18;;;;;;;;;;4984447;28;20019;-82
2022/08/30 06:05:57;;;;;;;16.77;6.90;;;;;;;;;;4999083;28;20058;-82
2022/08/30 06:08:22;;;;;;;14.48;6.88;;;;;;;;;;4991142;28;20077;-84
2022/08/30 06:10:47;;;;;;;18.75;6.45;;;;;;;;;;4991183;28;20615;-83
2022/08/30 06:13:14;;;;;;;18.20;7.10;;;;;;;;;;4990717;28;20030;-82
2022/08/30 06:15:42;;;;;;;19.95;7.10;;;;;;;;;;4988832;28;20539;-82
2022/08/30 06:18:08;;;;;;;21.17;6.95;;;;;;;;;;4994620;28;20038;-81
2022/08/30 06:20:39;;;;;;;13.15;7.20;;;;;;;;;;4984883;28;20041;-82
2022/08/30 06:23:04;;;;;;;17.13;7.43;;;;;;;;;;4988889;28;20034;-84
2022/08/30 06:25:29;;;;;;;14.10;7.05;;;;;;;;;;4990726;28;20038;-83
2022/08/30 06:27:55;;;;;;;13.82;6.45;;;;;;;;;;4990944;28;20025;-81
2022/08/30 06:30:20;;;;;;;16.77;7.45;;;;;;;;;;4985579;28;20149;-81
2022/08/30 06:32:46;;;;;;;11.95;6.95;;;;;;;;;;4985988;28;20044;-80
2022/08/30 06:35:11;;;;;;;13.15;6.50;;;;;;;;;;4985300;28;20041;-80
2022/08/30 06:37:36;;;;;;;12.10;7.03;;;;;;;;;;4984000;28;20038;-81
2022/08/30 06:40:02;;;;;;;17.95;7.15;;;;;;;;;;4988967;28;20126;-81
2022/08/30 06:42:30;;;;;;;14.32;6.82;;;;;;;;;;4988359;28;20019;-82
2022/08/30 06:44:57;;;;;;;15.75;7.18;;;;;;;;;;4987857;28;20041;-80
2022/08/30 06:47:23;;;;;;;20.10;7.30;;;;;;;;;;4987170;28;20058;-81
2022/08/30 06:49:48;;;;;;;13.80;7.38;;;;;;;;;;4983887;28;20057;-81
2022/08/30 06:52:13;;;;;;;12.48;6.57;;;;;;;;;;4984461;28;20125;-81
2022/08/30 06:54:39;;;;;;;13.43;7.35;;;;;;;;;;4983587;28;20026;-81
2022/08/30 06:57:04;;;;;;;13.30;7.38;;;;;;;;;;4989222;28;20054;-81
2022/08/30 06:59:31;;;;;;;18.63;7.55;;;;;;;;;;4988502;28;20026;-81
2022/08/30 07:01:56;;;;;;;17.98;7.38;;;;;;;;;;4988367;28;20486;-82
2022/08/30 07:04:21;;;;;;;16.35;7.95;;;;;;;;;;4979761;28;20884;-82
2022/08/30 07:06:47;;;;;;;12.40;6.93;;;;;;;;;;4985770;28;20022;-82
2022/08/30 07:09:12;;;;;;;17.38;7.80;;;;;;;;;;4989145;28;20014;-81
2022/08/30 07:11:39;;;;;;;14.80;7.25;;;;;;;;;;4984345;28;20030;-81
2022/08/30 07:14:05;;;;;;;16.05;7.90;;;;;;;;;;4987872;28;20065;-82
2022/08/30 07:16:32;;;;;;;18.75;7.93;;;;;;;;;;4986402;28;20700;-81
2022/08/30 07:18:59;;;;;;;23.08;7.70;;;;;;;;;;4988615;28;20033;-82
2022/08/30 07:21:33;;;;;;;20.77;7.15;;;;;;;;;;4988421;28;20030;-82
2022/08/30 07:23:59;;;;;;;17.27;7.40;;;;;;;;;;4983485;28;20038;-82
2022/08/30 07:26:42;;;;;;;15.85;7.07;;;;;;;;;;4987447;28;20034;-82
2022/08/30 07:29:08;;;;;;;15.48;7.88;;;;;;;;;;4988534;28;20037;-83
2022/08/30 07:31:35;;;;;;;14.32;7.93;;;;;;;;;;4979694;28;20405;-83
2022/08/30 07:34:01;;;;;;;16.00;7.40;;;;;;;;;;4985018;28;20106;-84
2022/08/30 07:36:27;;;;;;;22.98;8.15;;;;;;;;;;4984611;28;20030;-82
2022/08/30 07:38:53;;;;;;;20.92;6.97;;;;;;;;;;4985433;28;20440;-83
2022/08/30 07:41:27;;;;;;;16.15;7.60;;;;;;;;;;4976883;28;20125;-83
2022/08/30 07:43:53;;;;;;;14.88;7.38;;;;;;;;;;4970094;28;20437;-83
2022/08/30 07:46:19;;;;;;;15.52;7.55;;;;;;;;;;4982899;28;20038;-84
2022/08/30 07:48:45;;;;;;;16.40;7.18;;;;;;;;;;4978137;28;20026;-84
2022/08/30 07:51:13;;;;;;;14.10;6.43;;;;;;;;;;4980296;28;20010;-83
2022/08/30 07:53:39;;;;;;;14.77;7.13;;;;;;;;;;4984118;28;20065;-84
2022/08/30 07:56:04;;;;;;;12.68;7.20;;;;;;;;;;4985842;28;20084;-84
2022/08/30 07:58:30;;;;;;;11.43;6.85;;;;;;;;;;4982232;28;20449;-82
2022/08/30 08:00:58;;;;;;;16.73;6.30;;;;;;;;;;4984223;28;20037;-83
2022/08/30 08:03:25;;;;;;;11.85;6.63;;;;;;;;;;4983312;28;20045;-85
2022/08/30 08:05:51;;;;;;;14.60;6.38;;;;;;;;;;4983120;28;20034;-85
2022/08/30 08:08:18;;;;;;;10.95;6.57;;;;;;;;;;4984875;28;20041;-85
2022/08/30 08:10:43;;;;;;;14.05;6.45;;;;;;;;;;4984469;28;20117;-85
2022/08/30 08:13:09;;;;;;;10.55;5.97;;;;;;;;;;4984063;28;20163;-84
2022/08/30 08:15:34;;;;;;;16.23;6.43;;;;;;;;;;4988413;28;20112;-84
2022/08/30 08:18:00;;;;;;;16.05;6.13;;;;;;;;;;4985123;28;20520;-84
2022/08/30 08:20:26;;;;;;;10.98;5.85;;;;;;;;;;4985429;28;20039;-85
2022/08/30 08:22:52;;;;;;;10.63;6.07;;;;;;;;;;4979073;28;20030;-83
2022/08/30 08:25:17;;;;;;;11.02;6.00;;;;;;;;;;4965929;28;20034;-82
2022/08/30 08:27:49;;;;;;;13.02;5.75;;;;;;;;;;4962982;28;20488;-85
2022/08/30 08:30:16;;;;;;;10.50;6.20;;;;;;;;;;4968115;28;20003;-84
2022/08/30 08:32:42;;;;;;;14.98;6.50;;;;;;;;;;4972056;28;20089;-85
2022/08/30 08:35:10;;;;;;;13.70;5.68;;;;;;;;;;4968302;28;20451;-85
2022/08/30 08:37:35;;;;;;;13.43;6.32;;;;;;;;;;4975769;28;20157;-90
2022/08/30 08:40:00;;;;;;;13.15;6.70;;;;;;;;;;4985892;28;20429;-87
2022/08/30 08:42:47;;;;;;;10.02;5.57;;;;;;;;;;4987871;28;20018;-87
2022/08/30 08:45:20;;;;;;;9.98;6.10;;;;;;;;;;4988905;28;20533;-86
2022/08/30 08:48:00;;;;;;;12.50;6.03;;;;;;;;;;4988498;28;20656;-88
2022/08/30 08:50:25;;;;;;;12.38;6.10;;;;;;;;;;5003323;28;20030;-86
2022/08/30 08:53:35;;;;;;;9.77;5.18;;;;;;;;;;4983545;28;20595;-85
2022/08/30 08:56:05;;;;;;;19.73;5.90;;;;;;;;;;4989530;28;20038;-84
2022/08/30 08:58:43;;;;;;;10.20;5.60;;;;;;;;;;4988507;28;20389;-87
2022/08/30 09:01:12;;;;;;;10.13;5.35;;;;;;;;;;4985102;28;20586;-86
2022/08/30 09:03:38;;;;;;;15.10;5.95;;;;;;;;;;4988781;28;20022;-89
2022/08/30 09:06:30;;;;;;;13.07;5.55;;;;;;;;;;4990009;28;20033;-88
2022/08/30 09:08:56;;;;;;;10.95;5.68;;;;;;;;;;4986642;28;20045;-84
2022/08/30 09:11:28;;;;;;;11.48;4.90;;;;;;;;;;4986170;28;20034;-85
2022/08/30 09:13:53;;;;;;;11.27;5.25;;;;;;;;;;4990398;28;20382;-84
2022/08/30 09:16:47;;;;;;;11.05;5.32;;;;;;;;;;4988355;28;20622;-88
2022/08/30 09:19:31;;;;;;;14.23;5.30;;;;;;;;;;4989600;28;20097;-89
2022/08/30 09:21:59;;;;;;;16.35;5.50;;;;;;;;;;4990545;28;20565;-90
2022/08/30 09:24:24;;;;;;;13.38;5.70;;;;;;;;;;4989457;28;20475;-90
2022/08/30 09:26:50;;;;;;;11.60;5.20;;;;;;;;;;4985656;28;20066;-87
2022/08/30 09:29:17;;;;;;;14.05;4.85;;;;;;;;;;4987443;28;20042;-87
2022/08/30 09:31:50;;;;;;;13.32;5.25;;;;;;;;;;4990428;28;20427;-91
2022/08/30 09:34:19;;;;;;;10.50;5.03;;;;;;;;;;4991400;28;20034;-89
2022/08/30 09:36:48;;;;;;;12.68;5.60;;;;;;;;;;4990814;28;20041;-93
2022/08/30 09:39:29;;;;;;;14.02;5.47;;;;;;;;;;4986867;28;20551;-90
2022/08/30 09:42:14;;;;;;;12.88;5.35;;;;;;;;;;4987243;28;20045;-90
2022/08/30 09:44:40;;;;;;;8.15;4.85;;;;;;;;;;4997080;28;20057;-91
2022/08/30 09:47:17;;;;;;;10.40;4.97;;;;;;;;;;4990105;28;20034;-91
2022/08/30 09:49:43;;;;;;;9.00;5.03;;;;;;;;;;4987626;28;20030;-88
2022/08/30 09:52:18;;;;;;;9.05;4.43;;;;;;;;;;4992834;28;20041;-90
2022/08/30 09:54:59;;;;;;;7.95;4.60;;;;;;;;;;4984620;28;20038;-89
2022/08/30 09:57:51;;;;;;;9.32;4.88;;;;;;;;;;4987731;28;20042;-90
2022/08/30 10:00:22;;;;;;;12.48;4.50;;;;;;;;;;4990370;28;20774;-91
2022/08/30 10:02:48;;;;;;;9.70;4.70;;;;;;;;;;4991048;28;20042;-91
2022/08/30 10:05:47;;;;;;;8.20;4.45;;;;;;;;;;4997114;28;20046;-89
2022/08/30 10:08:31;;;;;;;9.32;4.35;;;;;;;;;;4987893;28;20034;-89
2022/08/30 10:11:06;;;;;;;9.77;4.18;;;;;;;;;;4988575;28;20053;-89
2022/08/30 10:13:55;;;;;;;10.05;3.97;;;;;;;;;;5004337;28;20080;-88
2022/08/30 10:16:29;;;;;;;8.02;3.80;;;;;;;;;;5002330;28;20045;-88
2022/08/30 10:19:13;;;;;;;7.93;4.00;;;;;;;;;;4987092;28;20030;-89
2022/08/30 10:21:58;;;;;;;9.38;4.13;;;;;;;;;;4989278;28;20912;-89
2022/08/30 10:24:39;;;;;;;7.38;3.55;;;;;;;;;;4986934;28;20046;-87
2022/08/30 10:27:09;;;;;;;9.13;3.53;;;;;;;;;;4985113;28;20042;-86
2022/08/30 10:29:42;;;;;;;8.13;3.55;;;;;;;;;;4990339;28;20035;-88
2022/08/30 10:32:23;;;;;;;9.73;4.20;;;;;;;;;;4981571;28;20034;-90
2022/08/30 10:34:55;;;;;;;8.52;4.68;;;;;;;;;;4985936;28;20121;-89
2022/08/30 10:37:30;;;;;;;8.75;3.58;;;;;;;;;;4992644;28;20038;-91
2022/08/30 10:41:11;;;;;;;9.77;4.40;;;;;;;;;;4990554;28;20061;-90
2022/08/30 10:42:55;;;;;;;8.15;3.83;;;;;;;;;;4986652;28;20018;-91
2022/08/30 10:45:21;;;;;;;6.53;3.47;;;;;;;;;;5000582;28;20029;-91
2022/08/30 10:48:00;;;;;;;6.95;3.75;;;;;;;;;;4987774;28;20041;-88
2022/08/30 10:50:36;;;;;;;7.43;3.40;;;;;;;;;;4986883;28;20039;-89
2022/08/30 10:53:14;;;;;;;5.78;3.33;;;;;;;;;;4984683;28;20148;-91
2022/08/30 10:55:55;;;;;;;8.45;3.88;;;;;;;;;;4997151;28;20060;-90
2022/08/30 10:58:21;;;;;;;15.25;3.38;;;;;;;;;;5008344;28;20042;-89
2022/08/30 11:00:57;;;;;;;10.18;3.78;;;;;;;;;;5008808;28;20039;-90
2022/08/30 11:03:25;;;;;;;9.20;3.58;;;;;;;;;;5004262;28;20029;-91
2022/08/30 11:06:12;;;;;;;6.45;3.47;;;;;;;;;;4989713;28;20042;-93
2022/08/30 11:08:56;;;;;;;9.65;3.90;;;;;;;;;;4989017;28;20046;-89
2022/08/30 11:11:30;;;;;;;8.00;3.95;;;;;;;;;;4986749;28;20042;-90
2022/08/30 11:13:56;;;;;;;6.78;3.67;;;;;;;;;;4990137;28;20049;-91
2022/08/30 11:16:35;;;;;;;7.38;3.30;;;;;;;;;;4988119;28;20448;-90
2022/08/30 11:19:00;;;;;;;7.18;3.28;;;;;;;;;;4981875;28;20117;-87
2022/08/30 11:21:39;;;;;;;7.60;3.65;;;;;;;;;;4983844;28;20033;-87
2022/08/30 11:24:21;;;;;;;6.78;3.50;;;;;;;;;;4998741;28;20136;-90
2022/08/30 11:26:47;;;;;;;7.60;3.65;;;;;;;;;;4984965;28;20066;-92
2022/08/30 11:29:29;;;;;;;6.18;3.40;;;;;;;;;;4986937;28;20062;-92
2022/08/30 11:32:19;;;;;;;5.50;3.40;;;;;;;;;;4987279;28;20118;-91
2022/08/30 11:34:44;;;;;;;4.18;3.25;;;;;;;;;;4981718;28;20046;-87
2022/08/30 11:37:14;;;;;;;6.03;3.97;;;;;;;;;;4985681;28;20108;-92
2022/08/30 11:39:49;;;;;;;5.20;3.20;;;;;;;;;;4991462;28;20018;-87
2022/08/30 11:42:32;;;;;;;6.05;3.20;;;;;;;;;;5008037;28;20074;-92
2022/08/30 11:45:22;;;;;;;6.93;3.38;;;;;;;;;;5002919;28;20054;-87
2022/08/30 11:47:57;;;;;;;8.25;3.15;;;;;;;;;;4989048;28;20034;-89
2022/08/30 11:50:39;;;;;;;7.38;3.60;;;;;;;;;;4986528;28;20097;-87
2022/08/30 11:53:25;;;;;;;9.83;3.47;;;;;;;;;;4979316;28;20042;-91
2022/08/30 11:56:09;;;;;;;7.18;3.55;;;;;;;;;;5001477;28;20034;-88
2022/08/30 11:59:08;;;;;;;5.60;3.50;;;;;;;;;;4987449;28;20537;-89
2022/08/30 12:01:37;;;;;;;6.65;3.60;;;;;;;;;;4983843;28;20586;-88
2022/08/30 12:04:15;;;;;;;7.15;3.83;;;;;;;;;;4985607;28;20046;-86
2022/08/30 12:06:40;;;;;;;7.13;3.90;;;;;;;;;;4989272;28;20019;-86
2022/08/30 12:09:31;;;;;;;6.38;3.30;;;;;;;;;;4987998;28;20085;-89
2022/08/30 12:12:06;;;;;;;5.07;3.03;;;;;;;;;;4969219;28;20539;-91
2022/08/30 12:14:53;;;;;;;12.95;3.40;;;;;;;;;;4969229;28;20070;-88
2022/08/30 12:20:36;;;;;;;5.28;3.33;;;;;;;;;;4989039;28;20053;-88
2022/08/30 12:23:28;;;;;;;7.30;3.58;;;;;;;;;;4987913;28;20038;-87
2022/08/30 12:26:19;;;;;;;10.45;3.40;;;;;;;;;;4980136;28;20401;-87
2022/08/30 12:28:47;;;;;;;6.88;3.60;;;;;;;;;;4987763;28;20483;-88
2022/08/30 12:31:17;;;;;;;7.97;3.72;;;;;;;;;;4988242;28;20026;-88
2022/08/30 12:33:48;;;;;;;6.72;3.22;;;;;;;;;;4986742;28;20062;-87
2022/08/30 12:36:47;;;;;;;10.68;3.63;;;;;;;;;;4995462;28;20089;-87
2022/08/30 12:39:18;;;;;;;3.67;2.60;;;;;;;;;;4988078;28;20042;-89
2022/08/30 12:41:44;;;;;;;4.50;3.30;;;;;;;;;;4988199;28;20620;-89
2022/08/30 12:44:15;;;;;;;7.72;3.42;;;;;;;;;;4988432;28;20125;-90
2022/08/30 12:46:42;;;;;;;6.35;3.20;;;;;;;;;;4978291;28;20042;-92
2022/08/30 12:49:08;;;;;;;7.13;3.72;;;;;;;;;;4986181;28;20624;-88
2022/08/30 12:51:36;;;;;;;8.75;4.25;;;;;;;;;;4984762;28;20022;-89
2022/08/30 12:54:13;;;;;;;5.22;3.53;;;;;;;;;;4985530;28;20038;-90
2022/08/30 12:56:47;;;;;;;6.28;3.30;;;;;;;;;;4988295;28;20054;-92
2022/08/30 12:59:38;;;;;;;6.03;3.00;;;;;;;;;;4988307;28;20034;-92
2022/08/30 13:02:12;;;;;;;4.40;3.00;;;;;;;;;;4987120;28;20057;-90
2022/08/30 13:04:38;;;;;;;9.35;3.53;;;;;;;;;;5001623;28;20039;-92
2022/08/30 13:07:03;;;;;;;6.05;3.75;;;;;;;;;;4987808;28;20034;-92
2022/08/30 13:09:38;;;;;;;8.90;3.90;;;;;;;;;;4981274;28;20026;-91
2022/08/30 13:12:26;;;;;;;5.00;3.20;;;;;;;;;;4982421;28;20535;-87
2022/08/30 13:14:54;;;;;;;8.57;3.33;;;;;;;;;;4989460;28;20081;-88
2022/08/30 13:17:26;;;;;;;7.43;3.78;;;;;;;;;;4991098;28;20101;-89
2022/08/30 13:20:03;;;;;;;7.30;3.28;;;;;;;;;;4987738;28;20122;-90
2022/08/30 13:22:30;;;;;;;6.80;3.22;;;;;;;;;;4992737;28;20030;-93
2022/08/30 13:24:56;;;;;;;5.55;3.13;;;;;;;;;;4984612;28;20026;-88
2022/08/30 13:27:22;;;;;;;8.85;3.05;;;;;;;;;;4987305;28;20536;-92
2022/08/30 13:29:48;;;;;;;7.05;3.25;;;;;;;;;;4980542;28;20038;-89
2022/08/30 13:32:14;;;;;;;6.55;3.88;;;;;;;;;;4979777;28;20038;-91
2022/08/30 13:34:41;;;;;;;15.93;3.15;;;;;;;;;;4981334;28;20113;-90
2022/08/30 13:37:08;;;;;;;10.27;3.33;;;;;;;;;;4975674;28;20043;-89
2022/08/30 13:39:34;;;;;;;13.82;3.33;;;;;;;;;;4984197;28;20049;-90
2022/08/30 13:41:59;;;;;;;8.77;3.90;;;;;;;;;;4984267;28;20039;-89
2022/08/30 13:44:24;;;;;;;8.07;3.42;;;;;;;;;;4984181;28;20042;-89
2022/08/30 13:46:52;;;;;;;6.30;3.22;;;;;;;;;;4983018;28;20129;-85
2022/08/30 13:49:21;;;;;;;8.85;3.35;;;;;;;;;;4977789;28;20042;-91
2022/08/30 13:51:47;;;;;;;7.88;3.75;;;;;;;;;;4985131;28;20519;-88
2022/08/30 13:54:13;;;;;;;7.93;3.65;;;;;;;;;;4985907;28;20061;-90
2022/08/30 13:56:39;;;;;;;5.07;3.33;;;;;;;;;;4975194;28;20052;-93
2022/08/30 13:59:05;;;;;;;8.80;3.38;;;;;;;;;;4977679;28;20046;-91
2022/08/30 14:01:31;;;;;;;8.98;3.60;;;;;;;;;;4978747;28;20051;-91
2022/08/30 14:03:56;;;;;;;7.82;3.33;;;;;;;;;;4981683;28;20045;-88
2022/08/30 14:06:21;;;;;;;5.35;3.45;;;;;;;;;;4984284;28;20022;-89
2022/08/30 14:08:47;;;;;;;8.43;3.83;;;;;;;;;;4985577;28;20138;-91
2022/08/30 14:11:16;;;;;;;7.18;3.05;;;;;;;;;;4988887;28;20520;-92
2022/08/30 14:13:42;;;;;;;6.55;3.05;;;;;;;;;;4985832;28;20042;-87
2022/08/30 14:16:08;;;;;;;7.50;3.80;;;;;;;;;;4981884;28;20121;-93
2022/08/30 14:18:34;;;;;;;5.80;3.53;;;;;;;;;;4981272;28;20030;-89
2022/08/30 14:20:59;;;;;;;6.07;3.40;;;;;;;;;;4981579;28;20050;-89
2022/08/30 14:23:25;;;;;;;6.50;3.25;;;;;;;;;;4973846;28;20502;-88
2022/08/30 14:25:52;;;;;;;10.20;3.90;;;;;;;;;;4975724;28;20039;-91
2022/08/30 14:28:17;;;;;;;9.82;3.40;;;;;;;;;;4979536;28;20536;-91
2022/08/30 14:30:43;;;;;;;6.95;3.72;;;;;;;;;;4980637;28;20524;-92
2022/08/30 14:33:08;;;;;;;7.90;3.50;;;;;;;;;;4982336;28;20034;-91
2022/08/30 14:35:33;;;;;;;9.00;3.47;;;;;;;;;;4988158;28;20048;-90
2022/08/30 14:37:59;;;;;;;5.45;3.50;;;;;;;;;;4986280;28;20044;-92
2022/08/30 14:40:24;;;;;;;8.20;3.70;;;;;;;;;;4987650;28;20042;-91
2022/08/30 14:42:50;;;;;;;6.47;3.30;;;;;;;;;;4981094;28;20073;-92
2022/08/30 14:45:16;;;;;;;4.97;3.45;;;;;;;;;;4981941;28;20072;-92
2022/08/30 14:47:41;;;;;;;7.65;3.50;;;;;;;;;;4979785;28;20038;-90
2022/08/30 14:50:07;;;;;;;11.70;4.32;;;;;;;;;;4980811;28;20031;-87
2022/08/30 14:52:34;;;;;;;5.32;3.60;;;;;;;;;;4982552;28;20045;-89